Time;durP1;ratioP1;P1;durP2;ratioP2;P2;SDS_P1;SDS_P2;PMS_P1;PMS_P2;Temp;Humidity;BMP_temperature;BMP_pressure;BME280_temperature;BME280_humidity;BME280_pressure;Samples;Min_cycle;Max_cycle;Signal;HPM_P1;HPM_P2
2021/07/31 00:02:10;;;;;;;5.10;1.70;;;;;;;;;;5031620;28;20200;-67
2021/07/31 00:04:36;;;;;;;3.55;1.60;;;;;;;;;;5016786;28;20186;-68
2021/07/31 00:07:01;;;;;;;8.20;2.30;;;;;;;;;;5032464;28;20572;-67
2021/07/31 00:09:26;;;;;;;5.03;1.90;;;;;;;;;;5017635;28;20675;-67
2021/07/31 00:11:52;;;;;;;8.20;1.95;;;;;;;;;;5027816;28;20205;-69
2021/07/31 00:14:17;;;;;;;6.85;2.20;;;;;;;;;;5025310;28;20193;-68
2021/07/31 00:16:43;;;;;;;6.90;1.73;;;;;;;;;;5022165;28;20190;-67
2021/07/31 00:19:09;;;;;;;8.27;2.00;;;;;;;;;;5028121;28;20262;-67
2021/07/31 00:21:34;;;;;;;7.03;1.80;;;;;;;;;;5020268;28;20201;-67
2021/07/31 00:23:59;;;;;;;6.38;1.60;;;;;;;;;;5024060;28;20188;-67
2021/07/31 00:26:25;;;;;;;5.57;1.55;;;;;;;;;;5019716;28;20563;-68
2021/07/31 00:28:50;;;;;;;8.50;2.40;;;;;;;;;;5023818;28;20193;-68
2021/07/31 00:31:16;;;;;;;10.43;1.60;;;;;;;;;;5017398;28;20547;-67
2021/07/31 00:33:41;;;;;;;4.85;1.95;;;;;;;;;;5023969;28;20839;-67
2021/07/31 00:36:06;;;;;;;6.22;1.75;;;;;;;;;;5019403;28;20205;-67
2021/07/31 00:38:31;;;;;;;3.50;1.45;;;;;;;;;;5027655;28;20613;-66
2021/07/31 00:40:57;;;;;;;11.88;2.10;;;;;;;;;;5018402;28;20664;-68
2021/07/31 00:43:22;;;;;;;8.45;2.22;;;;;;;;;;5022686;28;20550;-67
2021/07/31 00:45:47;;;;;;;5.63;1.80;;;;;;;;;;5023632;28;20180;-67
2021/07/31 00:48:13;;;;;;;7.47;2.17;;;;;;;;;;5015706;28;20576;-67
2021/07/31 00:50:39;;;;;;;5.03;1.75;;;;;;;;;;5027586;28;20217;-67
2021/07/31 00:53:04;;;;;;;7.85;2.15;;;;;;;;;;5017112;28;20241;-66
2021/07/31 00:55:31;;;;;;;7.65;2.28;;;;;;;;;;5029493;28;20178;-67
2021/07/31 00:57:57;;;;;;;9.18;2.22;;;;;;;;;;5014379;28;20230;-68
2021/07/31 01:00:23;;;;;;;7.18;2.58;;;;;;;;;;5019984;28;20207;-69
2021/07/31 01:02:48;;;;;;;5.78;2.20;;;;;;;;;;5027172;28;20263;-67
2021/07/31 01:05:13;;;;;;;6.53;2.35;;;;;;;;;;5024881;28;20234;-66
2021/07/31 01:07:39;;;;;;;6.95;2.38;;;;;;;;;;5017892;28;20756;-67
2021/07/31 01:10:05;;;;;;;10.15;2.63;;;;;;;;;;5030378;28;20562;-69
2021/07/31 01:12:34;;;;;;;4.32;2.20;;;;;;;;;;5017518;28;20210;-67
2021/07/31 01:15:00;;;;;;;4.63;2.03;;;;;;;;;;5022147;28;20232;-67
2021/07/31 01:17:26;;;;;;;6.15;2.40;;;;;;;;;;5024940;28;20190;-68
2021/07/31 01:19:51;;;;;;;5.00;2.10;;;;;;;;;;5016641;28;20276;-68
2021/07/31 01:22:17;;;;;;;10.65;2.67;;;;;;;;;;5026104;28;20179;-68
2021/07/31 01:24:42;;;;;;;5.85;2.35;;;;;;;;;;5014976;28;20705;-68
2021/07/31 01:27:08;;;;;;;5.63;2.15;;;;;;;;;;5025648;28;20262;-68
2021/07/31 01:29:33;;;;;;;8.45;2.45;;;;;;;;;;5017192;28;20684;-66
2021/07/31 01:31:59;;;;;;;6.50;2.45;;;;;;;;;;5022571;28;20216;-68
2021/07/31 01:34:24;;;;;;;11.35;2.28;;;;;;;;;;5015377;28;21041;-68
2021/07/31 01:36:50;;;;;;;7.55;2.60;;;;;;;;;;5026629;28;20584;-66
2021/07/31 01:39:15;;;;;;;5.43;2.20;;;;;;;;;;5016059;28;20205;-70
2021/07/31 01:41:41;;;;;;;7.40;2.28;;;;;;;;;;5022088;28;20174;-68
2021/07/31 01:44:06;;;;;;;9.63;2.63;;;;;;;;;;5017851;28;20179;-68
2021/07/31 01:46:31;;;;;;;5.07;2.35;;;;;;;;;;5020044;28;20602;-67
2021/07/31 01:48:57;;;;;;;7.15;2.40;;;;;;;;;;5020455;28;20276;-67
2021/07/31 01:51:22;;;;;;;8.45;2.72;;;;;;;;;;5009660;28;20206;-68
2021/07/31 01:53:47;;;;;;;6.55;2.75;;;;;;;;;;5019399;28;20190;-71
2021/07/31 01:56:13;;;;;;;7.72;2.55;;;;;;;;;;5017427;28;20201;-67
2021/07/31 01:58:38;;;;;;;6.50;2.38;;;;;;;;;;5021531;28;20226;-68
2021/07/31 02:01:04;;;;;;;11.10;3.63;;;;;;;;;;5017907;28;20293;-66
2021/07/31 02:03:29;;;;;;;7.25;2.80;;;;;;;;;;5017599;28;20212;-68
2021/07/31 02:05:55;;;;;;;9.43;2.80;;;;;;;;;;5015737;28;20191;-69
2021/07/31 02:08:20;;;;;;;11.55;3.28;;;;;;;;;;5022947;28;20738;-67
2021/07/31 02:10:46;;;;;;;6.40;2.55;;;;;;;;;;5020232;28;20665;-67
2021/07/31 02:13:11;;;;;;;8.10;2.70;;;;;;;;;;5021778;28;20202;-66
2021/07/31 02:15:41;;;;;;;9.07;3.47;;;;;;;;;;5022804;28;20489;-67
2021/07/31 02:18:06;;;;;;;10.93;2.90;;;;;;;;;;5013851;28;20193;-67
2021/07/31 02:20:32;;;;;;;6.28;2.78;;;;;;;;;;5028308;28;20186;-67
2021/07/31 02:22:57;;;;;;;7.93;2.92;;;;;;;;;;5008686;28;20194;-66
2021/07/31 02:25:23;;;;;;;5.57;2.45;;;;;;;;;;5041610;28;20336;-67
2021/07/31 02:27:50;;;;;;;8.52;3.25;;;;;;;;;;5015057;28;20245;-67
2021/07/31 02:30:16;;;;;;;9.43;2.85;;;;;;;;;;5021211;28;20580;-68
2021/07/31 02:32:41;;;;;;;10.48;3.13;;;;;;;;;;5011825;28;20198;-67
2021/07/31 02:35:07;;;;;;;7.72;3.20;;;;;;;;;;5028220;28;20367;-68
2021/07/31 02:37:33;;;;;;;9.95;3.55;;;;;;;;;;5009396;28;20201;-67
2021/07/31 02:39:58;;;;;;;9.82;3.53;;;;;;;;;;5025808;28;20520;-66
2021/07/31 02:42:23;;;;;;;12.55;3.90;;;;;;;;;;5016645;28;20564;-67
2021/07/31 02:44:49;;;;;;;9.95;3.92;;;;;;;;;;5025088;28;20181;-67
2021/07/31 02:47:14;;;;;;;12.00;3.65;;;;;;;;;;5022559;28;20190;-68
2021/07/31 02:49:39;;;;;;;9.18;3.50;;;;;;;;;;5019488;28;20732;-67
2021/07/31 02:52:05;;;;;;;11.32;4.07;;;;;;;;;;5019121;28;20217;-67
2021/07/31 02:54:30;;;;;;;17.05;4.70;;;;;;;;;;5013223;28;20190;-67
2021/07/31 02:56:56;;;;;;;9.48;4.05;;;;;;;;;;5022075;28;20755;-67
2021/07/31 02:59:21;;;;;;;8.02;4.40;;;;;;;;;;5014005;28;20234;-67
2021/07/31 03:01:46;;;;;;;11.00;4.40;;;;;;;;;;5017184;28;20182;-68
2021/07/31 03:04:12;;;;;;;10.25;4.13;;;;;;;;;;5013784;28;20264;-67
2021/07/31 03:06:37;;;;;;;11.30;4.32;;;;;;;;;;5020012;28;20241;-68
2021/07/31 03:09:02;;;;;;;10.77;4.20;;;;;;;;;;5013507;28;20552;-68
2021/07/31 03:11:28;;;;;;;11.93;4.45;;;;;;;;;;5029363;28;20568;-67
2021/07/31 03:13:53;;;;;;;11.55;4.85;;;;;;;;;;5013218;28;20853;-68
2021/07/31 03:16:18;;;;;;;9.45;4.63;;;;;;;;;;5013483;28;20674;-68
2021/07/31 03:18:44;;;;;;;11.65;4.78;;;;;;;;;;5015055;28;20236;-67
2021/07/31 03:21:11;;;;;;;12.80;5.05;;;;;;;;;;5022524;28;20507;-68
2021/07/31 03:23:36;;;;;;;12.00;4.53;;;;;;;;;;5020609;28;20178;-67
2021/07/31 03:26:02;;;;;;;10.80;4.45;;;;;;;;;;5020280;28;20552;-67
2021/07/31 03:28:28;;;;;;;15.20;4.95;;;;;;;;;;5020655;28;20186;-68
2021/07/31 03:30:54;;;;;;;12.18;4.70;;;;;;;;;;5019850;28;20197;-67
2021/07/31 03:33:19;;;;;;;9.48;4.85;;;;;;;;;;5021349;28;20218;-67
2021/07/31 03:35:45;;;;;;;13.25;4.72;;;;;;;;;;5021240;28;20196;-67
2021/07/31 03:38:11;;;;;;;16.90;6.55;;;;;;;;;;5018934;28;20613;-66
2021/07/31 03:40:37;;;;;;;14.20;5.13;;;;;;;;;;5022950;28;20328;-67
2021/07/31 03:43:03;;;;;;;11.77;4.90;;;;;;;;;;5022035;28;20221;-67
2021/07/31 03:45:29;;;;;;;12.70;5.05;;;;;;;;;;5026759;28;20233;-67
2021/07/31 03:47:54;;;;;;;16.55;4.82;;;;;;;;;;5024953;28;20186;-67
2021/07/31 03:50:20;;;;;;;9.18;4.88;;;;;;;;;;5019399;28;20186;-67
2021/07/31 03:52:45;;;;;;;12.00;4.70;;;;;;;;;;5014827;28;20211;-67
2021/07/31 03:55:11;;;;;;;15.07;4.70;;;;;;;;;;5028846;28;20186;-67
2021/07/31 03:57:37;;;;;;;13.70;4.50;;;;;;;;;;5014185;28;20607;-66
2021/07/31 04:00:04;;;;;;;9.93;4.65;;;;;;;;;;5028496;28;20665;-67
2021/07/31 04:02:29;;;;;;;10.82;5.00;;;;;;;;;;5020395;28;20618;-68
2021/07/31 04:04:55;;;;;;;13.88;4.40;;;;;;;;;;5027522;28;20268;-67
2021/07/31 04:07:20;;;;;;;16.73;5.28;;;;;;;;;;5019083;28;21067;-69
2021/07/31 04:09:46;;;;;;;16.02;5.80;;;;;;;;;;5025316;28;20178;-71
2021/07/31 04:12:11;;;;;;;15.40;6.45;;;;;;;;;;5015292;28;20246;-70
2021/07/31 04:14:37;;;;;;;14.35;6.80;;;;;;;;;;5032833;28;20178;-71
2021/07/31 04:17:02;;;;;;;14.48;6.70;;;;;;;;;;5013735;28;20224;-71
2021/07/31 04:19:28;;;;;;;13.88;7.75;;;;;;;;;;5027917;28;20174;-71
2021/07/31 04:21:56;;;;;;;11.65;6.88;;;;;;;;;;5028545;28;20178;-71
2021/07/31 04:24:28;;;;;;;16.98;6.90;;;;;;;;;;5017283;28;20201;-70
2021/07/31 04:26:53;;;;;;;12.85;7.57;;;;;;;;;;5023166;28;20182;-71
2021/07/31 04:29:19;;;;;;;18.15;7.40;;;;;;;;;;5024351;28;20201;-72
2021/07/31 04:31:46;;;;;;;11.48;7.53;;;;;;;;;;5025881;28;20262;-72
2021/07/31 04:34:12;;;;;;;19.80;8.65;;;;;;;;;;5015663;28;20558;-72
2021/07/31 04:36:37;;;;;;;17.75;8.73;;;;;;;;;;5022617;28;20197;-72
2021/07/31 04:39:04;;;;;;;18.63;8.55;;;;;;;;;;5019748;28;20186;-73
2021/07/31 04:41:29;;;;;;;22.67;9.60;;;;;;;;;;5022361;28;20269;-72
2021/07/31 04:43:55;;;;;;;19.40;9.82;;;;;;;;;;5035439;28;20285;-74
2021/07/31 04:46:20;;;;;;;19.38;9.65;;;;;;;;;;5018008;28;20189;-69
2021/07/31 04:48:45;;;;;;;14.18;8.30;;;;;;;;;;5021215;28;20194;-69
2021/07/31 04:51:11;;;;;;;15.23;8.88;;;;;;;;;;5014649;28;20198;-70
2021/07/31 04:53:36;;;;;;;14.68;9.25;;;;;;;;;;5022114;28;20289;-68
2021/07/31 04:56:02;;;;;;;15.23;8.77;;;;;;;;;;5015741;28;20557;-67
2021/07/31 04:58:28;;;;;;;14.38;8.75;;;;;;;;;;5021160;28;20340;-68
2021/07/31 05:00:59;;;;;;;13.05;8.00;;;;;;;;;;5011741;28;20293;-68
2021/07/31 05:03:25;;;;;;;10.63;6.80;;;;;;;;;;5022653;28;20637;-68
2021/07/31 05:05:50;;;;;;;13.07;7.55;;;;;;;;;;5010669;28;20191;-68
2021/07/31 05:08:15;;;;;;;12.07;7.25;;;;;;;;;;5020222;28;20239;-69
2021/07/31 05:10:43;;;;;;;9.77;7.13;;;;;;;;;;5006700;28;20200;-69
2021/07/31 05:13:09;;;;;;;9.57;6.97;;;;;;;;;;5018253;28;20206;-68
2021/07/31 05:15:36;;;;;;;12.52;7.88;;;;;;;;;;5010879;28;20190;-68
2021/07/31 05:18:01;;;;;;;10.77;7.90;;;;;;;;;;5017210;28;20237;-68
2021/07/31 05:20:26;;;;;;;14.98;8.43;;;;;;;;;;5010119;28;20210;-70
2021/07/31 05:22:53;;;;;;;9.18;7.68;;;;;;;;;;5019473;28;20316;-68
2021/07/31 05:25:18;;;;;;;12.32;8.40;;;;;;;;;;5020240;28;20218;-69
2021/07/31 05:27:44;;;;;;;10.63;7.70;;;;;;;;;;5009778;28;20233;-69
2021/07/31 05:30:10;;;;;;;13.82;8.35;;;;;;;;;;5014378;28;20189;-70
2021/07/31 05:32:35;;;;;;;11.88;7.63;;;;;;;;;;5008671;28;20217;-68
2021/07/31 05:35:01;;;;;;;15.60;8.27;;;;;;;;;;5017478;28;20644;-68
2021/07/31 05:37:26;;;;;;;15.10;8.77;;;;;;;;;;5009754;28;20188;-69
2021/07/31 05:39:52;;;;;;;12.48;8.43;;;;;;;;;;5016721;28;20269;-68
2021/07/31 05:42:17;;;;;;;12.23;8.35;;;;;;;;;;5004035;28;20286;-67
2021/07/31 05:44:42;;;;;;;16.65;9.65;;;;;;;;;;5014718;28;20248;-68
2021/07/31 05:47:08;;;;;;;17.55;10.38;;;;;;;;;;5008203;28;20542;-69
2021/07/31 05:49:33;;;;;;;16.38;10.50;;;;;;;;;;5033044;28;20590;-70
2021/07/31 05:51:58;;;;;;;18.25;10.50;;;;;;;;;;5011145;28;20226;-70
2021/07/31 05:54:24;;;;;;;15.15;9.75;;;;;;;;;;5022071;28;20198;-69
2021/07/31 05:56:49;;;;;;;14.80;10.05;;;;;;;;;;5017818;28;20721;-69
2021/07/31 05:59:16;;;;;;;14.07;10.13;;;;;;;;;;5009837;28;20330;-69
2021/07/31 06:01:41;;;;;;;16.88;10.63;;;;;;;;;;5020887;28;20186;-69
2021/07/31 06:04:07;;;;;;;16.90;9.95;;;;;;;;;;5014217;28;20598;-69
2021/07/31 06:06:33;;;;;;;15.10;9.95;;;;;;;;;;5020123;28;20197;-69
2021/07/31 06:08:59;;;;;;;16.15;10.15;;;;;;;;;;5018903;28;20232;-69
2021/07/31 06:11:25;;;;;;;16.27;9.88;;;;;;;;;;5014971;28;20194;-68
2021/07/31 06:13:50;;;;;;;18.55;10.68;;;;;;;;;;5010155;28;20187;-70
2021/07/31 06:16:15;;;;;;;20.35;10.95;;;;;;;;;;5017386;28;20203;-71
2021/07/31 06:18:41;;;;;;;15.00;10.27;;;;;;;;;;5011589;28;20194;-72
2021/07/31 06:21:14;;;;;;;15.75;11.15;;;;;;;;;;5036157;28;20193;-72
2021/07/31 06:23:39;;;;;;;17.65;11.05;;;;;;;;;;5048041;28;20189;-72
2021/07/31 06:26:07;;;;;;;16.30;10.73;;;;;;;;;;5016907;28;20190;-70
2021/07/31 06:28:32;;;;;;;15.68;9.55;;;;;;;;;;5020989;28;20227;-70
2021/07/31 06:30:58;;;;;;;17.88;10.02;;;;;;;;;;5011242;28;20654;-68
2021/07/31 06:33:23;;;;;;;14.73;8.95;;;;;;;;;;5017314;28;20678;-68
2021/07/31 06:35:48;;;;;;;16.10;9.85;;;;;;;;;;5007778;28;20205;-69
2021/07/31 06:38:14;;;;;;;14.55;9.68;;;;;;;;;;5022711;28;20597;-69
2021/07/31 06:40:41;;;;;;;18.60;9.00;;;;;;;;;;5008496;28;20572;-69
2021/07/31 06:43:06;;;;;;;12.43;8.85;;;;;;;;;;5018128;28;20634;-69
2021/07/31 06:45:33;;;;;;;13.80;8.73;;;;;;;;;;5014965;28;20204;-68
2021/07/31 06:47:58;;;;;;;12.93;8.57;;;;;;;;;;5020734;28;20192;-69
2021/07/31 06:50:23;;;;;;;15.40;8.82;;;;;;;;;;5014847;28;20190;-69
2021/07/31 06:52:49;;;;;;;13.05;7.80;;;;;;;;;;5021031;28;20221;-68
2021/07/31 06:55:14;;;;;;;10.48;8.00;;;;;;;;;;5012852;28;20186;-69
2021/07/31 06:57:39;;;;;;;13.50;8.48;;;;;;;;;;5022615;28;20697;-71
2021/07/31 07:00:05;;;;;;;13.30;9.05;;;;;;;;;;5013911;28;20202;-70
2021/07/31 07:02:30;;;;;;;13.35;8.50;;;;;;;;;;5023282;28;20197;-70
2021/07/31 07:04:56;;;;;;;12.57;8.52;;;;;;;;;;5026560;28;20496;-69
2021/07/31 07:07:21;;;;;;;10.07;8.77;;;;;;;;;;4320848;28;10000837;-71
2021/07/31 07:09:47;;;;;;;13.43;9.50;;;;;;;;;;5015821;28;20185;-73
2021/07/31 07:12:12;;;;;;;12.05;9.32;;;;;;;;;;5012160;28;20352;-72
2021/07/31 07:14:37;;;;;;;14.35;10.10;;;;;;;;;;5018786;28;20689;-72
2021/07/31 07:17:06;;;;;;;12.13;9.55;;;;;;;;;;5028155;28;20204;-70
2021/07/31 07:19:33;;;;;;;12.25;9.70;;;;;;;;;;5016127;28;20183;-71
2021/07/31 07:21:58;;;;;;;14.20;9.98;;;;;;;;;;5012243;28;20186;-70
2021/07/31 07:24:24;;;;;;;17.00;10.77;;;;;;;;;;5020046;28;20187;-70
2021/07/31 07:26:49;;;;;;;14.75;10.48;;;;;;;;;;5010467;28;20194;-72
2021/07/31 07:29:15;;;;;;;14.60;9.85;;;;;;;;;;5021940;28;20186;-72
2021/07/31 07:31:40;;;;;;;12.93;10.60;;;;;;;;;;5014284;28;20225;-73
2021/07/31 07:34:06;;;;;;;15.95;10.65;;;;;;;;;;5021148;28;20183;-69
2021/07/31 07:36:31;;;;;;;12.50;10.93;;;;;;;;;;5021615;28;20190;-70
2021/07/31 07:38:57;;;;;;;13.93;10.90;;;;;;;;;;5015159;28;20222;-72
2021/07/31 07:41:22;;;;;;;15.98;10.70;;;;;;;;;;5019727;28;20193;-71
2021/07/31 07:43:47;;;;;;;17.55;11.57;;;;;;;;;;5018100;28;20290;-70
2021/07/31 07:46:17;;;;;;;14.52;10.57;;;;;;;;;;5017130;28;20186;-69
2021/07/31 07:48:46;;;;;;;14.18;11.40;;;;;;;;;;5013475;28;20190;-69
2021/07/31 07:51:12;;;;;;;17.27;11.23;;;;;;;;;;5015804;28;20197;-69
2021/07/31 07:53:38;;;;;;;14.88;10.20;;;;;;;;;;5022286;28;20206;-72
2021/07/31 07:56:03;;;;;;;14.65;9.93;;;;;;;;;;5021394;28;20633;-72
2021/07/31 07:58:29;;;;;;;14.35;9.20;;;;;;;;;;5017385;28;20395;-70
2021/07/31 08:00:54;;;;;;;13.00;9.27;;;;;;;;;;5021483;28;20287;-70
2021/07/31 08:03:20;;;;;;;15.48;8.77;;;;;;;;;;5026958;28;20316;-69
2021/07/31 08:05:45;;;;;;;15.90;9.40;;;;;;;;;;5022355;28;20201;-69
2021/07/31 08:08:10;;;;;;;13.45;8.98;;;;;;;;;;5030362;28;20208;-70
2021/07/31 08:10:36;;;;;;;14.10;10.68;;;;;;;;;;5013389;28;20186;-69
2021/07/31 08:13:01;;;;;;;14.25;9.80;;;;;;;;;;5027519;28;20201;-69
2021/07/31 08:15:27;;;;;;;14.90;10.05;;;;;;;;;;5013778;28;20201;-69
2021/07/31 08:17:53;;;;;;;14.25;8.98;;;;;;;;;;5027756;28;21445;-69
2021/07/31 08:20:18;;;;;;;11.27;9.25;;;;;;;;;;5012263;28;20235;-70
2021/07/31 08:22:43;;;;;;;13.13;9.20;;;;;;;;;;5028808;28;20179;-71
2021/07/31 08:25:09;;;;;;;12.13;8.27;;;;;;;;;;5011723;28;20183;-72
2021/07/31 08:27:36;;;;;;;14.85;8.63;;;;;;;;;;5028481;28;20186;-72
2021/07/31 08:30:01;;;;;;;13.57;7.78;;;;;;;;;;5016847;28;20190;-71
2021/07/31 08:32:26;;;;;;;12.93;8.02;;;;;;;;;;5027644;28;20202;-69
2021/07/31 08:34:52;;;;;;;14.10;7.00;;;;;;;;;;5016836;28;20193;-69
2021/07/31 08:37:17;;;;;;;13.45;6.45;;;;;;;;;;5010476;28;20183;-69
2021/07/31 08:39:43;;;;;;;7.05;6.32;;;;;;;;;;5022560;28;20194;-69
2021/07/31 08:42:12;;;;;;;9.13;5.90;;;;;;;;;;5015071;28;20684;-70
2021/07/31 08:44:38;;;;;;;10.15;6.78;;;;;;;;;;5021616;28;20229;-71
2021/07/31 08:47:05;;;;;;;11.45;6.90;;;;;;;;;;5018025;28;20217;-68
2021/07/31 08:49:34;;;;;;;9.27;5.88;;;;;;;;;;5022370;28;20202;-69
2021/07/31 08:52:01;;;;;;;11.77;5.95;;;;;;;;;;5017372;28;20198;-67
2021/07/31 08:54:26;;;;;;;8.27;5.45;;;;;;;;;;5020296;28;20186;-68
2021/07/31 08:56:53;;;;;;;8.73;5.57;;;;;;;;;;4955709;28;1791862;-69
2021/07/31 08:59:26;;;;;;;13.40;5.55;;;;;;;;;;5023129;28;20289;-69
2021/07/31 09:01:52;;;;;;;7.35;4.38;;;;;;;;;;5015973;28;20194;-71
2021/07/31 09:04:18;;;;;;;8.05;3.70;;;;;;;;;;5026258;28;20584;-68
2021/07/31 09:06:45;;;;;;;6.80;3.58;;;;;;;;;;5016517;28;20186;-67
2021/07/31 09:09:11;;;;;;;5.72;3.67;;;;;;;;;;5027964;28;20217;-68
2021/07/31 09:12:03;;;;;;;9.07;3.63;;;;;;;;;;5025264;28;20194;-68
2021/07/31 09:14:30;;;;;;;6.22;3.97;;;;;;;;;;5017611;28;20185;-68
2021/07/31 09:16:57;;;;;;;8.93;4.70;;;;;;;;;;5024212;28;20189;-67
2021/07/31 09:19:24;;;;;;;7.43;4.25;;;;;;;;;;5007575;28;20191;-68
2021/07/31 09:21:51;;;;;;;6.40;4.18;;;;;;;;;;5023155;28;20191;-69
2021/07/31 09:24:16;;;;;;;11.25;4.30;;;;;;;;;;5012015;28;20183;-68
2021/07/31 09:26:48;;;;;;;7.35;4.10;;;;;;;;;;5026305;28;20189;-70
2021/07/31 09:29:15;;;;;;;7.57;4.28;;;;;;;;;;5019670;28;20240;-69
2021/07/31 09:31:51;;;;;;;7.95;4.82;;;;;;;;;;5021599;28;20189;-69
2021/07/31 09:34:24;;;;;;;7.60;4.30;;;;;;;;;;5015137;28;20195;-70
2021/07/31 09:36:49;;;;;;;6.10;4.10;;;;;;;;;;5025761;28;20186;-68
2021/07/31 09:39:15;;;;;;;9.13;4.95;;;;;;;;;;5017010;28;20197;-71
2021/07/31 09:41:41;;;;;;;8.52;4.82;;;;;;;;;;5026243;28;20255;-70
2021/07/31 09:44:14;;;;;;;6.13;4.82;;;;;;;;;;5011783;28;20533;-73
2021/07/31 09:46:47;;;;;;;7.80;5.53;;;;;;;;;;5037583;28;20186;-72
2021/07/31 09:49:20;;;;;;;7.15;5.03;;;;;;;;;;5010441;28;20186;-70
2021/07/31 09:51:46;;;;;;;7.40;5.50;;;;;;;;;;5025289;28;20190;-70
2021/07/31 09:54:15;;;;;;;6.15;5.53;;;;;;;;;;5010594;28;20202;-69
2021/07/31 09:56:51;;;;;;;6.20;5.55;;;;;;;;;;5025903;28;20530;-71
2021/07/31 09:59:19;;;;;;;5.53;4.93;;;;;;;;;;5011614;28;20205;-70
2021/07/31 10:01:57;;;;;;;6.57;5.80;;;;;;;;;;5024132;28;20244;-71
2021/07/31 10:04:23;;;;;;;6.55;5.95;;;;;;;;;;5020959;28;20281;-70
2021/07/31 10:06:49;;;;;;;7.00;5.95;;;;;;;;;;5020539;28;20190;-69
2021/07/31 10:09:14;;;;;;;8.32;6.20;;;;;;;;;;5023548;28;20554;-69
2021/07/31 10:11:40;;;;;;;7.35;6.22;;;;;;;;;;5012902;28;20194;-69
2021/07/31 10:14:08;;;;;;;9.63;6.28;;;;;;;;;;5012219;28;20662;-68
2021/07/31 10:16:36;;;;;;;8.00;6.72;;;;;;;;;;5019797;28;20235;-70
2021/07/31 10:19:04;;;;;;;7.80;6.90;;;;;;;;;;5022259;28;20240;-70
2021/07/31 10:21:34;;;;;;;9.32;6.72;;;;;;;;;;5019168;28;20196;-69
2021/07/31 10:24:06;;;;;;;9.18;5.95;;;;;;;;;;5024037;28;20477;-71
2021/07/31 10:26:34;;;;;;;8.98;6.47;;;;;;;;;;5014899;28;20674;-68
2021/07/31 10:29:25;;;;;;;9.20;6.25;;;;;;;;;;5021159;28;20193;-68
2021/07/31 10:31:50;;;;;;;8.00;6.05;;;;;;;;;;5020545;28;20293;-68
2021/07/31 10:34:54;;;;;;;11.18;6.03;;;;;;;;;;5019196;28;20261;-69
2021/07/31 10:37:29;;;;;;;7.97;5.57;;;;;;;;;;5015233;28;20689;-67
2021/07/31 10:39:59;;;;;;;9.32;5.38;;;;;;;;;;5020542;28;20646;-69
2021/07/31 10:42:25;;;;;;;8.00;4.80;;;;;;;;;;5017424;28;20194;-69
2021/07/31 10:45:09;;;;;;;6.15;4.55;;;;;;;;;;5022564;28;20594;-68
2021/07/31 10:47:35;;;;;;;6.75;4.28;;;;;;;;;;5022290;28;20598;-69
2021/07/31 10:50:20;;;;;;;5.22;3.90;;;;;;;;;;5019485;28;20269;-68
2021/07/31 10:52:53;;;;;;;6.28;4.13;;;;;;;;;;5025133;28;20235;-69
2021/07/31 10:55:20;;;;;;;7.85;3.78;;;;;;;;;;5016355;28;20213;-69
2021/07/31 10:57:54;;;;;;;5.32;3.88;;;;;;;;;;5017081;28;20236;-69
2021/07/31 11:00:26;;;;;;;7.30;3.92;;;;;;;;;;5022392;28;20217;-69
2021/07/31 11:02:52;;;;;;;4.47;3.58;;;;;;;;;;5016328;28;20213;-68
2021/07/31 11:05:18;;;;;;;9.50;3.97;;;;;;;;;;5024350;28;20186;-68
2021/07/31 11:07:56;;;;;;;4.40;3.20;;;;;;;;;;5013871;28;20193;-69
2021/07/31 11:10:34;;;;;;;5.68;3.10;;;;;;;;;;5022263;28;20213;-69
2021/07/31 11:12:59;;;;;;;5.22;3.30;;;;;;;;;;5016677;28;20310;-69
2021/07/31 11:15:25;;;;;;;9.00;3.53;;;;;;;;;;5021674;28;20278;-68
2021/07/31 11:17:59;;;;;;;6.32;3.80;;;;;;;;;;5028936;28;20531;-69
2021/07/31 11:20:31;;;;;;;3.78;3.17;;;;;;;;;;5013957;28;20268;-68
2021/07/31 11:23:02;;;;;;;4.63;3.67;;;;;;;;;;5023530;28;20183;-69
2021/07/31 11:25:28;;;;;;;3.92;3.13;;;;;;;;;;5011219;28;20190;-68
2021/07/31 11:28:07;;;;;;;4.18;2.92;;;;;;;;;;5026219;28;20178;-69
2021/07/31 11:30:45;;;;;;;5.10;2.90;;;;;;;;;;5012609;28;20189;-68
2021/07/31 11:33:22;;;;;;;5.80;3.10;;;;;;;;;;5026130;28;20297;-68
2021/07/31 11:35:50;;;;;;;5.15;2.78;;;;;;;;;;5014419;28;20215;-69
2021/07/31 11:38:35;;;;;;;4.68;2.90;;;;;;;;;;5024597;28;20213;-69
2021/07/31 11:41:05;;;;;;;7.47;3.03;;;;;;;;;;5018695;28;20680;-68
2021/07/31 11:43:52;;;;;;;4.03;3.17;;;;;;;;;;5022584;28;20493;-68
2021/07/31 11:46:25;;;;;;;6.13;3.15;;;;;;;;;;5014694;28;20656;-68
2021/07/31 11:48:51;;;;;;;4.43;2.30;;;;;;;;;;5028174;28;20197;-68
2021/07/31 11:51:16;;;;;;;3.50;2.53;;;;;;;;;;5016917;28;20224;-67
2021/07/31 11:53:41;;;;;;;6.85;2.60;;;;;;;;;;5022792;28;20218;-69
2021/07/31 11:56:10;;;;;;;4.32;2.33;;;;;;;;;;5021470;28;20194;-69
2021/07/31 11:58:36;;;;;;;7.90;2.90;;;;;;;;;;5019265;28;20229;-69
2021/07/31 12:01:01;;;;;;;5.90;2.45;;;;;;;;;;5024735;28;20243;-68
2021/07/31 12:03:43;;;;;;;7.28;2.88;;;;;;;;;;5028247;28;20740;-68
2021/07/31 12:06:28;;;;;;;3.85;2.75;;;;;;;;;;5036684;28;21203;-69
2021/07/31 12:08:57;;;;;;;4.95;2.92;;;;;;;;;;5024277;28;20182;-67
2021/07/31 12:11:34;;;;;;;3.90;2.80;;;;;;;;;;5016373;28;20261;-67
2021/07/31 12:14:01;;;;;;;4.63;2.63;;;;;;;;;;5025889;28;20198;-67
2021/07/31 12:16:29;;;;;;;3.38;2.88;;;;;;;;;;5017180;28;20251;-68
2021/07/31 12:18:55;;;;;;;5.90;3.00;;;;;;;;;;5027265;28;20260;-69
2021/07/31 12:21:27;;;;;;;7.25;3.05;;;;;;;;;;5019593;28;20194;-68
2021/07/31 12:23:53;;;;;;;4.45;2.90;;;;;;;;;;5022889;28;20639;-68
2021/07/31 12:26:32;;;;;;;6.03;3.30;;;;;;;;;;5024773;28;20209;-68
2021/07/31 12:28:57;;;;;;;5.90;3.40;;;;;;;;;;5018207;28;20182;-68
2021/07/31 12:31:25;;;;;;;4.75;2.92;;;;;;;;;;5028661;28;20263;-68
2021/07/31 12:33:51;;;;;;;8.00;3.22;;;;;;;;;;5014176;28;20211;-68
2021/07/31 12:36:17;;;;;;;6.00;3.13;;;;;;;;;;5029000;28;20182;-68
2021/07/31 12:38:42;;;;;;;5.30;3.38;;;;;;;;;;5013469;28;20194;-67
2021/07/31 12:41:07;;;;;;;6.10;3.38;;;;;;;;;;5030308;28;21294;-68
2021/07/31 12:43:33;;;;;;;7.75;3.83;;;;;;;;;;5015072;28;20589;-68
2021/07/31 12:46:01;;;;;;;6.68;4.20;;;;;;;;;;5029821;28;20228;-69
2021/07/31 12:48:28;;;;;;;8.27;4.28;;;;;;;;;;5013473;28;20193;-67
2021/07/31 12:50:54;;;;;;;8.38;4.30;;;;;;;;;;5028131;28;20268;-68
2021/07/31 12:53:25;;;;;;;7.40;4.22;;;;;;;;;;5009623;28;20309;-69
2021/07/31 12:55:53;;;;;;;7.22;4.43;;;;;;;;;;5030292;28;20634;-68
2021/07/31 12:58:19;;;;;;;5.15;3.90;;;;;;;;;;5013303;28;20230;-69
2021/07/31 13:00:45;;;;;;;6.30;3.65;;;;;;;;;;5033642;28;20282;-70
2021/07/31 13:03:10;;;;;;;6.88;3.40;;;;;;;;;;5022150;28;20645;-68
2021/07/31 13:05:42;;;;;;;5.97;2.70;;;;;;;;;;5018250;28;20196;-71
2021/07/31 13:08:09;;;;;;;8.52;2.67;;;;;;;;;;5017206;28;20256;-70
2021/07/31 13:10:36;;;;;;;3.75;2.40;;;;;;;;;;5018548;28;20241;-70
2021/07/31 13:13:03;;;;;;;4.63;1.90;;;;;;;;;;5021815;28;20293;-69
2021/07/31 13:15:28;;;;;;;3.83;2.20;;;;;;;;;;5016367;28;20202;-70
2021/07/31 13:17:53;;;;;;;7.32;2.92;;;;;;;;;;5026459;28;20194;-72
2021/07/31 13:20:19;;;;;;;7.15;3.42;;;;;;;;;;5012405;28;20236;-70
2021/07/31 13:22:45;;;;;;;8.68;3.40;;;;;;;;;;5020523;28;20189;-72
2021/07/31 13:25:11;;;;;;;9.40;3.83;;;;;;;;;;5014286;28;20194;-70
2021/07/31 13:27:36;;;;;;;5.90;3.40;;;;;;;;;;5018976;28;20190;-71
2021/07/31 13:30:03;;;;;;;8.40;3.70;;;;;;;;;;5008820;28;20182;-68
2021/07/31 13:32:31;;;;;;;7.35;3.80;;;;;;;;;;5017837;28;20221;-70
2021/07/31 13:34:56;;;;;;;6.72;3.78;;;;;;;;;;5015554;28;20185;-70
2021/07/31 13:37:26;;;;;;;7.57;4.28;;;;;;;;;;5020857;28;20269;-72
2021/07/31 13:39:53;;;;;;;7.30;4.38;;;;;;;;;;5020349;28;20201;-71
2021/07/31 13:42:18;;;;;;;7.20;4.55;;;;;;;;;;5011059;28;20553;-71
2021/07/31 13:44:48;;;;;;;6.47;4.65;;;;;;;;;;5021314;28;20182;-71
2021/07/31 13:47:14;;;;;;;6.88;4.07;;;;;;;;;;5013014;28;20190;-69
2021/07/31 13:49:39;;;;;;;7.18;4.30;;;;;;;;;;5022892;28;20295;-69
2021/07/31 13:52:05;;;;;;;9.48;4.57;;;;;;;;;;5016358;28;20240;-70
2021/07/31 13:54:31;;;;;;;7.30;4.30;;;;;;;;;;5021850;28;20248;-69
2021/07/31 13:56:58;;;;;;;4.95;4.00;;;;;;;;;;5012865;28;20194;-71
2021/07/31 13:59:25;;;;;;;8.65;4.35;;;;;;;;;;5015507;28;20209;-69
2021/07/31 14:01:51;;;;;;;5.93;3.90;;;;;;;;;;5013580;28;20198;-70
2021/07/31 14:04:16;;;;;;;6.45;3.65;;;;;;;;;;5014553;28;20178;-70
2021/07/31 14:06:41;;;;;;;5.93;3.63;;;;;;;;;;5009282;28;20266;-70
2021/07/31 14:09:07;;;;;;;4.95;3.70;;;;;;;;;;5014792;28;20226;-71
2021/07/31 14:11:32;;;;;;;5.55;3.53;;;;;;;;;;5020460;28;20645;-70
2021/07/31 14:13:57;;;;;;;5.75;3.38;;;;;;;;;;5003709;28;20206;-68
2021/07/31 14:16:23;;;;;;;4.32;3.13;;;;;;;;;;5012983;28;20190;-69
2021/07/31 14:18:48;;;;;;;5.85;3.60;;;;;;;;;;5009054;28;20217;-70
2021/07/31 14:21:16;;;;;;;7.97;3.65;;;;;;;;;;5017319;28;20650;-71
2021/07/31 14:23:42;;;;;;;7.13;3.85;;;;;;;;;;5008950;28;21723;-71
2021/07/31 14:26:09;;;;;;;7.43;3.33;;;;;;;;;;5019947;28;20269;-70
2021/07/31 14:28:35;;;;;;;5.30;3.35;;;;;;;;;;5007283;28;20199;-70
2021/07/31 14:31:00;;;;;;;5.00;3.33;;;;;;;;;;5015659;28;20194;-70
2021/07/31 14:33:26;;;;;;;4.20;2.42;;;;;;;;;;5008057;28;20214;-71
2021/07/31 14:35:51;;;;;;;3.42;2.00;;;;;;;;;;5017274;28;20186;-72